EGSS/STN METAR and TAF weather

Enter ICAO airport designator
Station Type Date Time Source
EGSS METAR 2023/02/04 02:50 UTC NOAA

EGSS 040250Z AUTO 26004KT 9999 OVC036 08/05 Q1035


Station Type Date Time Source
EGSS Decoded METAR 2023/02/04 02:50 UTC NOAA

Stansted Airport, United Kingdom (EGSS) 51-53N 000-14E 0M
Feb 03, 2023 - 09:50 PM EST / 2023.02.04 0250 UTC
Wind: from the W (260 degrees) at 5 MPH (4 KT):0
Visibility: greater than 7 mile(s):0
Sky conditions: overcast
Temperature: 46 F (8 C)
Dew Point: 41 F (5 C)
Relative Humidity: 81%
Pressure (altimeter): 30.56 in. Hg (1035 hPa)
ob: EGSS 040250Z AUTO 26004KT 9999 OVC036 08/05 Q1035
cycle: 3

Station Type Date Time Source
EGSS TAF 2023/02/03 20:06 UTC NOAA

TAF
AMD EGSS 032001Z 0320/0424 25010KT 9999 SCT030
BECMG 0320/0323 VRB03KT PROB30 0402/0409 6000

Example: see airport list